Ashland, WI

11:50 AM CST on February 09, 2016 (GMT -0600)
Near Northland College | | Change Station
CLOSE
Current Station
Personal Weather Station
Location: Ashland, WI
Elevation: 689 ft
Nearby Weather Stations
Active Advisory: Winter Weather Advisory Active Notice: Local Storm Report

Elev 689 ft 46.58 °N, 90.88 °W | Updated 43 seconds ago

Overcast
Overcast
10.0 °F
Feels Like 1 °F
N
5.0
Wind Variable Wind from North
Gusts 6.0 mph

Today
High -- | Low -- °F
--% Chance of Precip.
Yesterday
High -- | Low -- °F
Precip. -- in
Pressure 30.04 in
Visibility 4.0 miles
Clouds Overcast 2100 ft
Windchill 1 °F
Dew Point 2 °F
Humidity 68%
Rainfall 0.00 in
Snow Depth Not available.
7:17 AM 5:18 PM
New Moon, 2% visible
SPECI KASX 091728Z AUTO 34011KT 4SM -SN OVC021 M13/M17 A3004 RMK AO2 P0000 T11281167
Pressure 30.04 in
Visibility 4.0 miles
Clouds Overcast 2100 ft
Windchill 1 °F
Dew Point 2 °F
Humidity 68%
Rainfall 0.00 in
Snow Depth Not available.
7:17 AM 5:18 PM
New Moon, 2% visible
SPECI KASX 091728Z AUTO 34011KT 4SM -SN OVC021 M13/M17 A3004 RMK AO2 P0000 T11281167

10-Day Weather Forecast

Almanac

Astronomy

Feb. 09, 2016 Rise Set
Actual Time
Civil Twilight
Nautical Twilight
Astronomical Twilight
Moon
Length of Visible Light
Length of Day
Tomorrow will be .
, % of the Moon is Illuminated

Today's Extremes

State Highs State Lows

Community

WunderPhotos

Upload Photos

1,891,650 photos uploaded!

WunderBlog® & News

Nearby

Air Quality

  Air Quality AQ Index Pollutant
Not available.

Snow Depth

Station Depth Elevation

Earthquake Activity

City Distance Mag. Time & Date
Minimum magnitude displayed is 2.5.

Coastal Water Temperatures

Place Temperature

Stations

Nearby Weather Stations

Station Location Temp. Windchill Dew Point Humidity Wind Precip. Elev Updated Type
                   

Watches & Warnings

Winter Weather Advisory
Issued: 10:34 AM CST Feb. 9, 2016 – National Weather Service

... Winter Weather Advisory remains in effect until 3 PM CST this
afternoon...

* timing... expect occasional snow showers into the aftenroon.

* Snow accumulations... additional fluffy snow accumulations of up
to an inch are expected.

* Impacts... plan on slippery Road conditions.

Precautionary/preparedness actions...

A Winter Weather Advisory for fluffy snow means periods of fluffy
snow will cause primarily travel difficulties. Be prepared for
snow covered roads and limited visibilities... and use caution
while driving. The latest Road conditions for the state you are
calling from can be obtained by calling 5 1 1.


Jjm